EW1720 Weather Reports


time (UTC)temp
C
wind
direction
speed
KPH
gust
KPH
rain 1hr
cm
rain 24hr
cm
rain mn
cm
humidity
%
barometer
mb
20190421160013 17 349 0.0 0.0 0.00 0.10 0.00 93 1021.4
20190421150019 18 349 0.0 0.0 0.00 0.10 0.00 92 1021.6
20190421140024 18 349 0.0 0.0 0.00 0.10 0.03 90 1021.4
20190421130030 19 28 0.0 0.0 0.00 0.10 0.03 90 1021.5
20190421120015 19 21 0.0 0.0 0.00 0.10 0.03 91 1021.9
20190421110022 19 26 0.0 0.0 0.00 0.10 0.03 92 1022.1
20190421100027 19 356 0.0 0.0 0.00 0.10 0.03 90 1021.9
20190421090013 20 34 0.0 0.0 0.00 0.10 0.03 88 1021.7
20190421080019 20 1 0.0 0.0 0.00 0.10 0.03 86 1021.7
20190421070025 21 345 0.0 0.0 0.00 0.10 0.03 79 1021.4
20190421060030 22 20 0.0 0.0 0.00 0.10 0.03 75 1021.1
20190421050016 27 30 0.0 0.0 0.00 0.10 0.03 63 1021.2
20190421040023 26 56 0.0 0.0 0.00 0.10 0.03 63 1021.4
20190421030029 27 286 0.0 0.0 0.00 0.10 0.03 58 1021.6
20190421020016 27 71 0.0 0.0 0.00 0.10 0.03 58 1022.9
20190421010021 25 333 0.0 0.0 0.00 0.10 0.03 64 1023.9
20190421000027 23 321 0.0 0.0 0.00 0.10 0.03 82 1024.1
20190420230017 18 341 0.0 0.0 0.00 0.10 0.03 97 1024.4
20190420220024 17 319 0.0 0.0 0.10 0.10 0.03 98 1024.7
20190420210031 15 319 0.0 0.0 0.00 0.00 0.00 97 1024.0
20190420200017 15 319 0.0 0.0 0.00 0.00 0.00 97 1023.3
20190420190023 15 319 0.0 0.0 0.00 0.00 0.00 97 1023.2
20190420180029 15 319 0.0 0.0 0.00 0.00 0.00 96 1022.9
20190420170015 16 319 0.0 0.0 0.00 0.00 0.00 96 1022.7